createdAt,value
2022-07-25T00:01:36.436Z,98814.41
2022-07-25T00:04:03.763Z,98824.59
2022-07-25T00:06:32.232Z,98813.91
2022-07-25T00:08:58.780Z,98813.47
2022-07-25T00:11:25.338Z,98811.91
2022-07-25T00:13:51.883Z,98815.41
2022-07-25T00:16:18.551Z,98809.09
2022-07-25T00:18:45.188Z,98810.69
2022-07-25T00:21:12.364Z,98801.97
2022-07-25T00:23:40.429Z,98801.97
2022-07-25T00:26:07.141Z,98799.53
2022-07-25T00:28:33.756Z,98801.13
2022-07-25T00:31:00.346Z,98804.22
2022-07-25T00:33:27.132Z,98802.97
2022-07-25T00:35:53.714Z,98795.06
2022-07-25T00:38:20.257Z,98797.44
2022-07-25T00:40:54.325Z,98801.72
2022-07-25T00:43:22.407Z,98796.97
2022-07-25T00:45:48.999Z,98790.25
2022-07-25T00:48:15.582Z,98785.47
2022-07-25T00:50:42.813Z,98783.09
2022-07-25T00:53:09.357Z,98782.22
2022-07-25T00:55:35.965Z,98783.34
2022-07-25T00:58:04.132Z,98771.91
2022-07-25T01:00:30.893Z,98774.22
2022-07-25T01:02:57.857Z,98776.19
2022-07-25T01:05:24.492Z,98775.41
2022-07-25T01:07:51.823Z,98766.34
2022-07-25T01:10:18.435Z,98764.34
2022-07-25T01:12:48.003Z,98761.59
2022-07-25T01:15:16.315Z,98754.13
2022-07-25T01:17:42.907Z,98752.91
2022-07-25T01:20:15.181Z,98746.22
2022-07-25T01:22:41.795Z,98749.69
2022-07-25T01:25:08.915Z,98744.13
2022-07-25T01:27:35.525Z,98742.16
2022-07-25T01:30:02.148Z,98735.09
2022-07-25T01:32:28.663Z,98737.84
2022-07-25T01:34:55.197Z,98732.72
2022-07-25T01:37:23.110Z,98732.28
2022-07-25T01:39:49.716Z,98738.56
2022-07-25T01:42:16.343Z,98733.44
2022-07-25T01:44:42.953Z,98729.91
2022-07-25T01:47:09.502Z,98729.84
2022-07-25T01:49:36.059Z,98725.88
2022-07-25T01:52:02.701Z,98728.97
2022-07-25T01:54:30.575Z,98721.53
2022-07-25T01:56:58.564Z,98725.81
2022-07-25T01:59:25.502Z,98721.47
2022-07-25T02:01:52.305Z,98722.66
2022-07-25T02:04:19.011Z,98714.81
2022-07-25T02:06:45.610Z,98715.59
2022-07-25T02:09:12.175Z,98714.81
2022-07-25T02:11:40.117Z,98713.97
2022-07-25T02:14:07.558Z,98715.53
2022-07-25T02:16:34.432Z,98720.19
2022-07-25T02:19:01.124Z,98715.41
2022-07-25T02:21:27.681Z,98723.22
2022-07-25T02:23:54.316Z,98714.19
2022-07-25T02:26:20.874Z,98712.59
2022-07-25T02:28:49.407Z,98712.97
2022-07-25T02:31:16.397Z,98709.00
2022-07-25T02:33:43.083Z,98703.13
2022-07-25T02:36:10.999Z,98708.13
2022-07-25T02:38:38.131Z,98704.94
2022-07-25T02:41:05.552Z,98696.97
2022-07-25T02:43:32.126Z,98698.53
2022-07-25T02:46:00.250Z,98696.53
2022-07-25T02:48:26.947Z,98690.59
2022-07-25T02:50:53.634Z,98679.50
2022-07-25T02:53:34.232Z,98673.63
2022-07-25T02:56:07.215Z,98675.94
2022-07-25T02:58:34.369Z,98679.84
2022-07-25T03:01:02.411Z,98677.41
2022-07-25T03:03:29.048Z,98676.56
2022-07-25T03:05:55.586Z,98667.13
2022-07-25T03:08:22.118Z,98670.22
2022-07-25T03:10:48.747Z,98671.38
2022-07-25T03:13:15.292Z,98666.97
2022-07-25T03:15:41.853Z,98665.03
2022-07-25T03:18:09.774Z,98664.63
2022-07-25T03:20:40.490Z,98664.63
2022-07-25T03:23:07.089Z,98662.25
2022-07-25T03:25:33.633Z,98661.03
2022-07-25T03:28:00.182Z,98655.19
2022-07-25T03:30:26.743Z,98655.56
2022-07-25T03:32:53.309Z,98655.13
2022-07-25T03:35:21.195Z,98655.13
2022-07-25T03:37:47.725Z,98645.31
2022-07-25T03:40:14.494Z,98642.16
2022-07-25T03:42:42.589Z,98654.28
2022-07-25T03:45:10.000Z,98645.28
2022-07-25T03:47:36.632Z,98643.69
2022-07-25T03:50:04.102Z,98650.75
2022-07-25T03:52:31.983Z,98655.81
2022-07-25T03:54:58.527Z,98645.22
2022-07-25T03:57:25.063Z,98649.53
2022-07-25T03:59:51.594Z,98655.88
2022-07-25T04:02:18.362Z,98646.88
2022-07-25T04:04:44.998Z,98647.66
2022-07-25T04:07:11.528Z,98642.94
2022-07-25T04:09:39.438Z,98639.81
2022-07-25T04:12:06.333Z,98644.94
2022-07-25T04:14:32.881Z,98648.47
2022-07-25T04:16:59.461Z,98646.53
2022-07-25T04:19:28.277Z,98639.09
2022-07-25T04:21:55.582Z,98641.91
2022-07-25T04:24:22.118Z,98637.22
2022-07-25T04:26:49.997Z,98633.34
2022-07-25T04:29:16.706Z,98638.44
2022-07-25T04:31:43.253Z,98631.03
2022-07-25T04:34:10.115Z,98636.53
2022-07-25T04:36:36.859Z,98625.19
2022-07-25T04:39:03.524Z,98623.66
2022-07-25T04:41:30.173Z,98617.44
2022-07-25T04:43:58.087Z,98608.88
2022-07-25T04:46:24.644Z,98614.88
2022-07-25T04:48:51.640Z,98611.38
2022-07-25T04:51:18.747Z,98607.91
2022-07-25T04:53:45.305Z,98610.75
2022-07-25T04:56:11.843Z,98604.16
2022-07-25T04:58:38.399Z,98602.22
2022-07-25T05:01:06.831Z,98596.06
2022-07-25T05:03:33.469Z,98594.56
2022-07-25T05:06:00.032Z,98583.66
2022-07-25T05:08:26.583Z,98579.81
2022-07-25T05:10:54.046Z,98574.41
2022-07-25T05:13:20.742Z,98572.53
2022-07-25T05:15:47.275Z,98578.09
2022-07-25T05:18:15.231Z,98574.25
2022-07-25T05:20:41.765Z,98570.78
2022-07-25T05:23:08.322Z,98566.91
2022-07-25T05:25:35.137Z,98563.88
2022-07-25T05:28:01.686Z,98556.88
2022-07-25T05:30:28.385Z,98565.59
2022-07-25T05:32:54.936Z,98565.25
2022-07-25T05:35:22.862Z,98550.75
2022-07-25T05:37:49.414Z,98554.34
2022-07-25T05:40:15.973Z,98553.22
2022-07-25T05:42:42.587Z,98556.41
2022-07-25T05:45:09.875Z,98551.69
2022-07-25T05:47:36.519Z,98541.53
2022-07-25T05:50:03.555Z,98541.56
2022-07-25T05:52:31.477Z,98543.13
2022-07-25T05:54:58.057Z,98537.59
2022-07-25T05:57:24.585Z,98541.09
2022-07-25T05:59:51.110Z,98534.00
2022-07-25T06:02:17.792Z,98527.69
2022-07-25T06:04:44.426Z,98539.47
2022-07-25T06:07:16.796Z,98530.38
2022-07-25T06:09:45.199Z,98531.88
2022-07-25T06:12:11.766Z,98531.41
2022-07-25T06:14:38.337Z,98534.13
2022-07-25T06:17:04.891Z,98533.66
2022-07-25T06:19:31.453Z,98522.53
2022-07-25T06:21:58.064Z,98530.31
2022-07-25T06:24:24.631Z,98517.22
2022-07-25T06:26:52.542Z,98530.91
2022-07-25T06:29:19.135Z,98531.19
2022-07-25T06:31:46.455Z,98519.16
2022-07-25T06:34:13.851Z,98520.22
2022-07-25T06:36:40.388Z,98520.81
2022-07-25T06:39:06.900Z,98523.78
2022-07-25T06:41:33.499Z,98523.19
2022-07-25T06:44:01.404Z,98515.41
2022-07-25T06:46:27.985Z,98516.34
2022-07-25T06:48:54.651Z,98525.06
2022-07-25T06:51:21.305Z,98514.91
2022-07-25T06:53:47.853Z,98509.81
2022-07-25T06:56:17.588Z,98506.31
2022-07-25T06:58:44.579Z,98504.00
2022-07-25T07:01:12.577Z,98502.56
2022-07-25T07:03:39.302Z,98500.72
2022-07-25T07:06:07.403Z,98515.31
2022-07-25T07:08:34.179Z,98507.44
2022-07-25T07:11:00.888Z,98507.22
2022-07-25T07:13:27.462Z,98498.47
2022-07-25T07:15:54.093Z,98505.13
2022-07-25T07:18:22.187Z,98504.56
2022-07-25T07:20:49.018Z,98505.44
2022-07-25T07:23:16.935Z,98502.75
2022-07-25T07:25:45.600Z,98505.63
2022-07-25T07:28:12.868Z,98498.22
2022-07-25T07:31:13.335Z,98496.88
2022-07-25T07:33:27.422Z,98499.09
2022-07-25T07:35:54.007Z,98492.47
2022-07-25T07:38:20.555Z,98483.25
2022-07-25T07:40:47.091Z,98472.31
2022-07-25T07:43:13.707Z,98486.72
2022-07-25T07:45:41.239Z,98476.25
2022-07-25T07:48:07.862Z,98476.91
2022-07-25T07:50:36.245Z,98477.97
2022-07-25T07:53:03.356Z,98470.22
2022-07-25T07:55:30.181Z,98469.06
2022-07-25T07:57:56.945Z,98467.38
2022-07-25T08:00:23.698Z,98465.81
2022-07-25T08:02:52.627Z,98461.56
2022-07-25T08:05:24.716Z,98454.38
2022-07-25T08:07:53.778Z,98457.09
2022-07-25T08:10:22.490Z,98450.59
2022-07-25T08:12:49.231Z,98461.56
2022-07-25T08:15:16.173Z,98463.72
2022-07-25T08:17:42.740Z,98468.53
2022-07-25T08:20:36.311Z,98463.88
2022-07-25T08:22:59.159Z,98466.03
2022-07-25T08:25:25.883Z,98456.94
2022-07-25T08:27:52.426Z,98454.50
2022-07-25T08:30:19.555Z,98462.41
2022-07-25T08:32:47.566Z,98457.88
2022-07-25T08:35:36.442Z,98451.66
2022-07-25T08:38:05.051Z,98459.06
2022-07-25T08:40:33.972Z,98448.34
2022-07-25T08:43:00.727Z,98446.59
2022-07-25T08:45:28.405Z,98454.88
2022-07-25T08:47:55.904Z,98453.22
2022-07-25T08:50:24.984Z,98452.75
2022-07-25T08:53:00.936Z,98449.16
2022-07-25T08:55:38.326Z,98449.09
2022-07-25T08:58:05.023Z,98448.31
2022-07-25T09:00:31.613Z,98447.75
2022-07-25T09:02:59.682Z,98445.72
2022-07-25T09:05:27.810Z,98450.38
2022-07-25T09:07:56.439Z,98445.88
2022-07-25T09:10:25.902Z,98442.34
2022-07-25T09:12:55.724Z,98441.13
2022-07-25T09:15:26.990Z,98432.66
2022-07-25T09:17:56.862Z,98427.56
2022-07-25T09:20:24.252Z,98430.53
2022-07-25T09:22:50.961Z,98422.59
2022-07-25T09:25:25.564Z,98415.31
2022-07-25T09:27:53.920Z,98407.16
2022-07-25T09:30:20.546Z,98399.94
2022-07-25T09:32:47.381Z,98410.16
2022-07-25T09:35:14.173Z,98413.47
2022-07-25T09:37:40.782Z,98413.28
2022-07-25T09:40:14.699Z,98415.50
2022-07-25T09:42:41.835Z,98407.22
2022-07-25T09:45:13.049Z,98399.25
2022-07-25T09:47:54.313Z,98391.19
2022-07-25T09:50:22.429Z,98393.09
2022-07-25T09:52:50.580Z,98387.97
2022-07-25T09:55:17.155Z,98385.69
2022-07-25T09:57:43.737Z,98392.91
2022-07-25T10:00:19.030Z,98382.00
2022-07-25T10:02:56.294Z,98394.22
2022-07-25T10:05:34.054Z,98377.16
2022-07-25T10:08:05.199Z,98380.31
2022-07-25T10:10:36.618Z,98384.56
2022-07-25T10:13:10.162Z,98376.66
2022-07-25T10:15:50.306Z,98368.63
2022-07-25T10:18:19.860Z,98363.09
2022-07-25T10:20:48.028Z,98364.38
2022-07-25T10:23:23.731Z,98368.47
2022-07-25T10:26:04.603Z,98354.25
2022-07-25T10:28:55.989Z,98359.41
2022-07-25T10:31:25.504Z,98350.75
2022-07-25T10:33:55.233Z,98346.31
2022-07-25T10:36:23.184Z,98348.28
2022-07-25T10:38:52.388Z,98346.59
2022-07-25T10:41:19.099Z,98337.88
2022-07-25T10:43:48.650Z,98342.47
2022-07-25T10:46:19.137Z,98329.53
2022-07-25T10:48:58.052Z,98340.16
2022-07-25T10:51:27.394Z,98337.88
2022-07-25T10:53:54.051Z,98330.38
2022-07-25T10:56:22.172Z,98325.09
2022-07-25T10:58:51.515Z,98312.34
2022-07-25T11:01:26.954Z,98327.53
2022-07-25T11:03:57.007Z,98324.06
2022-07-25T11:06:32.184Z,98330.84
2022-07-25T11:08:59.248Z,98327.50
2022-07-25T11:11:36.529Z,98320.84
2022-07-25T11:14:04.466Z,98323.81
2022-07-25T11:16:31.109Z,98320.06
2022-07-25T11:18:59.006Z,98311.19
2022-07-25T11:21:25.604Z,98306.78
2022-07-25T11:23:52.903Z,98287.94
2022-07-25T11:26:19.899Z,98303.00
2022-07-25T11:28:48.634Z,98300.97
2022-07-25T11:31:16.751Z,98297.66
2022-07-25T11:33:47.434Z,98301.81
2022-07-25T11:36:16.015Z,98294.59
2022-07-25T11:38:47.108Z,98295.41
2022-07-25T11:41:13.696Z,98304.28
2022-07-25T11:43:48.280Z,98297.44
2022-07-25T11:46:14.922Z,98297.84
2022-07-25T11:48:41.611Z,98291.22
2022-07-25T11:51:14.850Z,98280.69
2022-07-25T11:53:47.899Z,98298.19
2022-07-25T11:56:40.759Z,98283.09
2022-07-25T11:59:04.054Z,98290.13
2022-07-25T12:01:34.494Z,98293.56
2022-07-25T12:04:11.781Z,98290.53
2022-07-25T12:06:38.500Z,98293.63
2022-07-25T12:09:19.218Z,98279.34
2022-07-25T12:11:46.945Z,98277.31
2022-07-25T12:14:13.830Z,98258.03
2022-07-25T12:16:40.592Z,98277.53
2022-07-25T12:19:10.652Z,98268.09
2022-07-25T12:21:37.408Z,98282.31
2022-07-25T12:24:04.866Z,98278.22
2022-07-25T12:26:39.451Z,98285.06
2022-07-25T12:29:06.419Z,98272.63
2022-07-25T12:31:33.253Z,98273.19
2022-07-25T12:33:59.839Z,98270.38
2022-07-25T12:36:26.466Z,98270.00
2022-07-25T12:38:53.032Z,98273.53
2022-07-25T12:41:19.623Z,98252.44
2022-07-25T12:43:47.534Z,98267.63
2022-07-25T12:46:14.186Z,98261.13
2022-07-25T12:48:40.798Z,98279.28
2022-07-25T12:51:07.453Z,98257.97
2022-07-25T12:53:35.294Z,98256.56
2022-07-25T12:56:03.662Z,98261.19
2022-07-25T12:58:30.276Z,98264.78
2022-07-25T13:01:01.184Z,98264.78
2022-07-25T13:03:30.061Z,98267.28
2022-07-25T13:05:56.651Z,98265.53
2022-07-25T13:08:23.268Z,98267.16
2022-07-25T13:10:49.847Z,98283.38
2022-07-25T13:13:16.439Z,98300.16
2022-07-25T13:15:43.013Z,98295.06
2022-07-25T13:18:11.158Z,98290.31
2022-07-25T13:20:37.743Z,98287.19
2022-07-25T13:23:05.488Z,98293.28
2022-07-25T13:25:32.473Z,98297.59
2022-07-25T13:27:59.007Z,98295.84
2022-07-25T13:30:25.569Z,98287.72
2022-07-25T13:32:53.389Z,98287.31
2022-07-25T13:35:24.374Z,98291.47
2022-07-25T13:37:53.994Z,98309.22
2022-07-25T13:40:21.161Z,98308.44
2022-07-25T13:42:47.733Z,98311.22
2022-07-25T13:45:14.332Z,98306.41
2022-07-25T13:47:40.908Z,98304.72
2022-07-25T13:50:07.997Z,98297.25
2022-07-25T13:52:35.940Z,98303.44
2022-07-25T13:55:02.470Z,98317.28
2022-07-25T13:57:29.085Z,98334.91
2022-07-25T13:59:55.622Z,98350.09
2022-07-25T14:02:22.342Z,98350.34
2022-07-25T14:04:49.083Z,98352.31
2022-07-25T14:07:15.723Z,98361.38
2022-07-25T14:09:43.673Z,98359.97
2022-07-25T14:12:10.215Z,98351.94
2022-07-25T14:14:36.803Z,98338.59
2022-07-25T14:17:03.446Z,98344.22
2022-07-25T14:19:30.150Z,98338.88
2022-07-25T14:21:56.696Z,98334.34
2022-07-25T14:24:23.269Z,98327.56
2022-07-25T14:26:51.241Z,98332.94
2022-07-25T14:29:17.810Z,98326.22
2022-07-25T14:31:44.411Z,98323.97
2022-07-25T14:34:11.035Z,98319.41
2022-07-25T14:36:37.620Z,98310.53
2022-07-25T14:39:05.024Z,98299.72
2022-07-25T14:41:31.895Z,98300.03
2022-07-25T14:43:59.852Z,98297.34
2022-07-25T14:46:26.530Z,98300.84
2022-07-25T14:48:53.163Z,98294.69
2022-07-25T14:51:20.209Z,98294.72
2022-07-25T14:53:50.051Z,98279.69
2022-07-25T14:56:19.460Z,98279.34
2022-07-25T14:58:46.027Z,98283.34
2022-07-25T15:01:14.360Z,98289.94
2022-07-25T15:03:40.975Z,98284.47
2022-07-25T15:06:07.662Z,98280.13
2022-07-25T15:08:34.211Z,98283.31
2022-07-25T15:11:00.772Z,98277.06
2022-07-25T15:13:31.865Z,98284.31
2022-07-25T15:15:58.995Z,98271.81
2022-07-25T15:18:27.276Z,98276.03
2022-07-25T15:20:54.028Z,98265.00
2022-07-25T15:23:20.754Z,98265.72
2022-07-25T15:26:03.965Z,98261.38
2022-07-25T15:28:32.011Z,98263.84
2022-07-25T15:30:58.728Z,98267.50
2022-07-25T15:33:26.696Z,98266.28
2022-07-25T15:35:54.234Z,98263.16
2022-07-25T15:38:21.047Z,98254.44
2022-07-25T15:40:48.625Z,98242.84
2022-07-25T15:43:15.213Z,98246.56
2022-07-25T15:45:43.094Z,98236.25
2022-07-25T15:48:11.608Z,98236.75
2022-07-25T15:50:44.190Z,98241.88
2022-07-25T15:53:11.698Z,98234.41
2022-07-25T15:55:40.694Z,98233.16
2022-07-25T15:58:07.921Z,98224.63
2022-07-25T16:00:34.595Z,98224.34
2022-07-25T16:03:01.315Z,98224.06
2022-07-25T16:05:28.004Z,98216.78
2022-07-25T16:07:55.960Z,98225.81
2022-07-25T16:10:22.490Z,98224.19
2022-07-25T16:12:49.115Z,98212.03
2022-07-25T16:15:15.688Z,98202.81
2022-07-25T16:17:42.246Z,98209.00
2022-07-25T16:20:10.083Z,98213.72
2022-07-25T16:22:36.841Z,98202.13
2022-07-25T16:25:05.578Z,98197.84
2022-07-25T16:27:32.274Z,98192.09
2022-07-25T16:29:59.168Z,98192.34
2022-07-25T16:32:25.704Z,98194.81
2022-07-25T16:34:52.299Z,98196.78
2022-07-25T16:37:19.742Z,98195.41
2022-07-25T16:39:46.304Z,98192.41
2022-07-25T16:42:14.220Z,98194.06
2022-07-25T16:44:40.839Z,98198.84
2022-07-25T16:47:07.846Z,98200.19
2022-07-25T16:49:34.517Z,98196.09
2022-07-25T16:52:01.092Z,98193.22
2022-07-25T16:54:27.627Z,98193.72
2022-07-25T16:56:56.413Z,98198.41
2022-07-25T16:59:27.537Z,98194.06
2022-07-25T17:01:54.212Z,98187.91
2022-07-25T17:04:20.926Z,98183.06
2022-07-25T17:07:02.238Z,98187.56
2022-07-25T17:09:28.849Z,98192.16
2022-07-25T17:11:58.440Z,98183.59
2022-07-25T17:14:29.945Z,98187.19
2022-07-25T17:16:58.303Z,98191.16
2022-07-25T17:19:24.868Z,98200.81
2022-07-25T17:21:51.436Z,98209.50
2022-07-25T17:24:18.032Z,98216.59
2022-07-25T17:26:44.633Z,98242.06
2022-07-25T17:29:11.283Z,98251.53
2022-07-25T17:31:37.908Z,98258.66
2022-07-25T17:34:05.891Z,98248.81
2022-07-25T17:36:32.429Z,98260.34
2022-07-25T17:38:59.019Z,98272.47
2022-07-25T17:41:25.576Z,98288.81
2022-07-25T17:43:52.161Z,98298.94
2022-07-25T17:46:18.776Z,98297.25
2022-07-25T17:48:45.423Z,98301.66
2022-07-25T17:51:13.375Z,98303.50
2022-07-25T17:53:39.984Z,98303.16
2022-07-25T17:56:07.724Z,98308.72
2022-07-25T17:58:34.368Z,98310.84
2022-07-25T18:01:01.758Z,98316.16
2022-07-25T18:03:29.192Z,98324.53
2022-07-25T18:05:55.934Z,98330.59
2022-07-25T18:08:23.941Z,98327.63
2022-07-25T18:10:50.704Z,98330.22
2022-07-25T18:13:17.457Z,98331.56
2022-07-25T18:15:44.462Z,98344.38
2022-07-25T18:18:11.152Z,98347.75
2022-07-25T18:20:39.331Z,98348.38
2022-07-25T18:23:06.213Z,98353.91
2022-07-25T18:25:34.210Z,98363.63
2022-07-25T18:28:01.564Z,98365.13
2022-07-25T18:30:29.360Z,98362.94
2022-07-25T18:32:56.072Z,98371.09
2022-07-25T18:35:22.706Z,98380.47
2022-07-25T18:37:49.371Z,98388.50
2022-07-25T18:40:15.987Z,98388.91
2022-07-25T18:42:44.012Z,98393.97
2022-07-25T18:45:11.352Z,98389.38
2022-07-25T18:47:38.334Z,98406.19
2022-07-25T18:50:06.476Z,98399.28
2022-07-25T18:52:33.083Z,98403.84
2022-07-25T18:54:59.653Z,98407.28
2022-07-25T18:57:26.290Z,98430.38
2022-07-25T18:59:54.211Z,98429.38
2022-07-25T19:02:21.557Z,98437.19
2022-07-25T19:04:48.310Z,98438.97
2022-07-25T19:07:14.874Z,98445.88
2022-07-25T19:09:41.455Z,98450.78
2022-07-25T19:12:08.767Z,98453.00
2022-07-25T19:14:35.392Z,98454.78
2022-07-25T19:17:04.108Z,98462.47
2022-07-25T19:19:30.788Z,98466.47
2022-07-25T19:21:57.426Z,98468.91
2022-07-25T19:24:24.076Z,98475.88
2022-07-25T19:26:50.669Z,98480.88
2022-07-25T19:29:17.903Z,98490.13
2022-07-25T19:31:44.880Z,98502.13
2022-07-25T19:34:12.836Z,98499.44
2022-07-25T19:36:39.608Z,98507.97
2022-07-25T19:39:06.531Z,98507.41
2022-07-25T19:41:33.531Z,98515.94
2022-07-25T19:44:00.162Z,98521.28
2022-07-25T19:46:26.844Z,98523.44
2022-07-25T19:48:53.469Z,98534.03
2022-07-25T19:51:21.436Z,98531.09
2022-07-25T19:53:48.021Z,98547.88
2022-07-25T19:56:14.559Z,98537.34
2022-07-25T19:58:43.440Z,98549.06
2022-07-25T20:01:10.505Z,98548.91
2022-07-25T20:03:37.217Z,98554.53
2022-07-25T20:06:08.074Z,98556.19
2022-07-25T20:08:36.394Z,98556.00
2022-07-25T20:11:02.992Z,98560.00
2022-07-25T20:13:29.600Z,98553.72
2022-07-25T20:15:56.246Z,98564.56
2022-07-25T20:18:22.848Z,98555.59
2022-07-25T20:20:49.467Z,98558.50
2022-07-25T20:23:16.232Z,98566.50
2022-07-25T20:25:44.317Z,98562.22
2022-07-25T20:28:11.005Z,98565.09
2022-07-25T20:30:37.675Z,98568.28
2022-07-25T20:33:08.166Z,98580.31
2022-07-25T20:35:37.099Z,98580.81
2022-07-25T20:38:08.971Z,98585.66
2022-07-25T20:40:36.372Z,98589.38
2022-07-25T20:43:07.942Z,98597.78
2022-07-25T20:45:34.600Z,98591.56
2022-07-25T20:48:01.232Z,98592.22
2022-07-25T20:50:27.878Z,98584.03
2022-07-25T20:52:54.453Z,98588.84
2022-07-25T20:55:21.170Z,98598.16
2022-07-25T20:57:50.681Z,98597.22
2022-07-25T21:00:19.074Z,98601.44
2022-07-25T21:02:45.696Z,98600.03
2022-07-25T21:05:12.259Z,98609.31
2022-07-25T21:07:38.840Z,98605.00
2022-07-25T21:10:06.346Z,98613.41
2022-07-25T21:12:33.361Z,98609.53
2022-07-25T21:15:00.025Z,98614.03
2022-07-25T21:17:27.998Z,98621.28
2022-07-25T21:19:54.723Z,98628.91
2022-07-25T21:22:21.386Z,98622.72
2022-07-25T21:24:47.947Z,98626.81
2022-07-25T21:27:14.568Z,98628.50
2022-07-25T21:29:42.177Z,98629.41
2022-07-25T21:32:08.878Z,98642.13
2022-07-25T21:34:36.986Z,98645.38
2022-07-25T21:37:03.545Z,98648.53
2022-07-25T21:39:30.092Z,98653.38
2022-07-25T21:41:56.740Z,98661.31
2022-07-25T21:44:23.590Z,98667.31
2022-07-25T21:46:50.255Z,98668.59
2022-07-25T21:49:17.018Z,98670.63
2022-07-25T21:51:57.879Z,98675.03
2022-07-25T21:54:24.697Z,98681.78
2022-07-25T21:56:51.225Z,98686.59
2022-07-25T21:59:17.910Z,98692.22
2022-07-25T22:01:44.565Z,98689.09
2022-07-25T22:04:11.258Z,98693.50
2022-07-25T22:06:37.913Z,98699.09
2022-07-25T22:09:06.732Z,98697.22
2022-07-25T22:11:42.391Z,98694.88
2022-07-25T22:14:12.602Z,98699.28
2022-07-25T22:16:39.251Z,98697.75
2022-07-25T22:19:06.195Z,98704.53
2022-07-25T22:21:33.566Z,98695.84
2022-07-25T22:24:00.188Z,98694.31
2022-07-25T22:26:28.045Z,98695.91
2022-07-25T22:28:55.685Z,98703.03
2022-07-25T22:31:22.312Z,98701.84
2022-07-25T22:33:48.907Z,98703.84
2022-07-25T22:36:15.487Z,98694.78
2022-07-25T22:38:42.676Z,98705.03
2022-07-25T22:41:10.346Z,98707.41
2022-07-25T22:43:58.320Z,98710.91
2022-07-25T22:46:25.125Z,98712.09
2022-07-25T22:48:51.765Z,98713.28
2022-07-25T22:51:18.332Z,98721.50
2022-07-25T22:53:44.908Z,98729.00
2022-07-25T22:56:11.722Z,98717.94
2022-07-25T22:58:39.852Z,98725.41
2022-07-25T23:01:06.404Z,98726.19
2022-07-25T23:03:33.516Z,98736.41
2022-07-25T23:06:01.204Z,98726.19
2022-07-25T23:08:27.815Z,98729.38
2022-07-25T23:10:54.491Z,98731.72
2022-07-25T23:13:21.070Z,98735.25
2022-07-25T23:15:51.243Z,98730.09
2022-07-25T23:18:18.495Z,98732.09
2022-07-25T23:20:45.069Z,98738.00
2022-07-25T23:23:11.831Z,98737.22
2022-07-25T23:25:39.469Z,98732.09
2022-07-25T23:28:06.318Z,98722.59
2022-07-25T23:30:36.711Z,98723.78
2022-07-25T23:33:08.450Z,98721.84
2022-07-25T23:35:35.467Z,98724.97
2022-07-25T23:38:02.523Z,98735.63
2022-07-25T23:40:29.234Z,98727.75
2022-07-25T23:42:55.787Z,98728.94
2022-07-25T23:45:27.933Z,98737.59
2022-07-25T23:47:55.442Z,98721.47
2022-07-25T23:50:23.959Z,98725.00
2022-07-25T23:52:50.530Z,98734.06
2022-07-25T23:55:17.175Z,98730.13
2022-07-25T23:57:43.784Z,98728.56
